sensor_id;sensor_type;location;lat;lon;timestamp;P1;durP1;ratioP1;P2;durP2;ratioP2
71975;SDS011;68326;52.124;5.424;2023-07-31T00:01:12;1.30;;;0.30;;
71975;SDS011;68326;52.124;5.424;2023-07-31T00:03:38;2.78;;;0.40;;
71975;SDS011;68326;52.124;5.424;2023-07-31T00:06:05;1.00;;;0.30;;
71975;SDS011;68326;52.124;5.424;2023-07-31T00:08:31;2.05;;;0.32;;
71975;SDS011;68326;52.124;5.424;2023-07-31T00:10:58;1.97;;;0.30;;
71975;SDS011;68326;52.124;5.424;2023-07-31T00:13:24;1.88;;;0.40;;
71975;SDS011;68326;52.124;5.424;2023-07-31T00:15:51;0.90;;;0.22;;
71975;SDS011;68326;52.124;5.424;2023-07-31T00:18:18;1.52;;;0.40;;
71975;SDS011;68326;52.124;5.424;2023-07-31T00:20:45;2.08;;;0.50;;
71975;SDS011;68326;52.124;5.424;2023-07-31T00:23:12;1.00;;;0.30;;
71975;SDS011;68326;52.124;5.424;2023-07-31T00:25:39;1.85;;;0.32;;
71975;SDS011;68326;52.124;5.424;2023-07-31T00:28:05;1.05;;;0.47;;
71975;SDS011;68326;52.124;5.424;2023-07-31T00:30:32;2.35;;;0.70;;
71975;SDS011;68326;52.124;5.424;2023-07-31T00:32:59;2.72;;;1.02;;
71975;SDS011;68326;52.124;5.424;2023-07-31T00:35:25;3.17;;;1.00;;
71975;SDS011;68326;52.124;5.424;2023-07-31T00:37:52;3.92;;;1.13;;
71975;SDS011;68326;52.124;5.424;2023-07-31T00:40:18;4.82;;;1.38;;
71975;SDS011;68326;52.124;5.424;2023-07-31T00:42:45;6.38;;;1.63;;
71975;SDS011;68326;52.124;5.424;2023-07-31T00:45:11;6.97;;;1.63;;
71975;SDS011;68326;52.124;5.424;2023-07-31T00:47:38;9.93;;;2.27;;
71975;SDS011;68326;52.124;5.424;2023-07-31T00:50:05;11.98;;;2.15;;
71975;SDS011;68326;52.124;5.424;2023-07-31T00:52:33;12.55;;;2.47;;
71975;SDS011;68326;52.124;5.424;2023-07-31T00:54:59;10.57;;;2.20;;
71975;SDS011;68326;52.124;5.424;2023-07-31T00:57:26;11.82;;;2.83;;
71975;SDS011;68326;52.124;5.424;2023-07-31T00:59:52;16.70;;;2.80;;
71975;SDS011;68326;52.124;5.424;2023-07-31T01:02:19;14.07;;;3.00;;
71975;SDS011;68326;52.124;5.424;2023-07-31T01:04:46;11.45;;;2.92;;
71975;SDS011;68326;52.124;5.424;2023-07-31T01:12:34;12.90;;;2.90;;
71975;SDS011;68326;52.124;5.424;2023-07-31T01:17:27;16.70;;;2.78;;
71975;SDS011;68326;52.124;5.424;2023-07-31T01:19:54;11.85;;;2.97;;
71975;SDS011;68326;52.124;5.424;2023-07-31T01:25:16;9.43;;;3.10;;
71975;SDS011;68326;52.124;5.424;2023-07-31T01:27:59;9.63;;;2.45;;
71975;SDS011;68326;52.124;5.424;2023-07-31T01:30:32;9.35;;;2.28;;
71975;SDS011;68326;52.124;5.424;2023-07-31T01:33:02;8.27;;;2.10;;
71975;SDS011;68326;52.124;5.424;2023-07-31T01:35:34;10.15;;;2.20;;
71975;SDS011;68326;52.124;5.424;2023-07-31T01:38:01;9.90;;;2.20;;
71975;SDS011;68326;52.124;5.424;2023-07-31T01:40:28;9.63;;;2.70;;
71975;SDS011;68326;52.124;5.424;2023-07-31T01:42:54;13.65;;;2.95;;
71975;SDS011;68326;52.124;5.424;2023-07-31T01:45:21;14.38;;;3.35;;
71975;SDS011;68326;52.124;5.424;2023-07-31T01:47:48;11.82;;;2.50;;
71975;SDS011;68326;52.124;5.424;2023-07-31T01:50:14;10.43;;;2.97;;
71975;SDS011;68326;52.124;5.424;2023-07-31T01:52:41;12.02;;;2.65;;
71975;SDS011;68326;52.124;5.424;2023-07-31T01:55:07;13.93;;;2.80;;
71975;SDS011;68326;52.124;5.424;2023-07-31T01:57:36;10.13;;;2.85;;
71975;SDS011;68326;52.124;5.424;2023-07-31T02:00:03;11.77;;;2.47;;
71975;SDS011;68326;52.124;5.424;2023-07-31T02:02:31;13.40;;;3.30;;
71975;SDS011;68326;52.124;5.424;2023-07-31T02:04:58;12.93;;;3.33;;
71975;SDS011;68326;52.124;5.424;2023-07-31T02:07:24;11.65;;;2.50;;
71975;SDS011;68326;52.124;5.424;2023-07-31T02:09:51;9.82;;;2.70;;
71975;SDS011;68326;52.124;5.424;2023-07-31T02:12:17;8.73;;;1.90;;
71975;SDS011;68326;52.124;5.424;2023-07-31T02:14:44;6.70;;;2.10;;
71975;SDS011;68326;52.124;5.424;2023-07-31T02:17:11;7.93;;;2.60;;
71975;SDS011;68326;52.124;5.424;2023-07-31T02:19:37;8.05;;;1.98;;
71975;SDS011;68326;52.124;5.424;2023-07-31T02:22:04;9.20;;;2.13;;
71975;SDS011;68326;52.124;5.424;2023-07-31T02:24:31;10.73;;;2.30;;
71975;SDS011;68326;52.124;5.424;2023-07-31T02:26:58;10.13;;;2.37;;
71975;SDS011;68326;52.124;5.424;2023-07-31T02:29:24;11.55;;;2.55;;
71975;SDS011;68326;52.124;5.424;2023-07-31T02:31:51;9.82;;;2.13;;
71975;SDS011;68326;52.124;5.424;2023-07-31T02:34:17;10.25;;;2.50;;
71975;SDS011;68326;52.124;5.424;2023-07-31T02:36:44;12.32;;;2.53;;
71975;SDS011;68326;52.124;5.424;2023-07-31T02:39:10;10.70;;;2.60;;
71975;SDS011;68326;52.124;5.424;2023-07-31T02:41:37;10.75;;;2.47;;
71975;SDS011;68326;52.124;5.424;2023-07-31T02:44:03;9.20;;;2.38;;
71975;SDS011;68326;52.124;5.424;2023-07-31T02:46:30;8.65;;;2.13;;
71975;SDS011;68326;52.124;5.424;2023-07-31T02:48:57;10.20;;;2.42;;
71975;SDS011;68326;52.124;5.424;2023-07-31T02:51:24;8.23;;;2.63;;
71975;SDS011;68326;52.124;5.424;2023-07-31T02:53:50;13.88;;;2.70;;
71975;SDS011;68326;52.124;5.424;2023-07-31T02:56:17;6.90;;;2.00;;
71975;SDS011;68326;52.124;5.424;2023-07-31T02:58:44;10.07;;;2.45;;
71975;SDS011;68326;52.124;5.424;2023-07-31T03:01:10;10.20;;;2.88;;
71975;SDS011;68326;52.124;5.424;2023-07-31T03:03:37;7.27;;;2.30;;
71975;SDS011;68326;52.124;5.424;2023-07-31T03:06:04;11.13;;;2.53;;
71975;SDS011;68326;52.124;5.424;2023-07-31T03:08:30;9.60;;;2.58;;
71975;SDS011;68326;52.124;5.424;2023-07-31T03:10:57;9.95;;;2.92;;
71975;SDS011;68326;52.124;5.424;2023-07-31T03:13:23;11.27;;;3.08;;
71975;SDS011;68326;52.124;5.424;2023-07-31T03:15:50;14.47;;;2.70;;
71975;SDS011;68326;52.124;5.424;2023-07-31T03:18:16;14.27;;;2.97;;
71975;SDS011;68326;52.124;5.424;2023-07-31T03:20:43;16.05;;;3.38;;
71975;SDS011;68326;52.124;5.424;2023-07-31T03:23:10;12.57;;;3.08;;
71975;SDS011;68326;52.124;5.424;2023-07-31T03:25:37;20.63;;;3.50;;
71975;SDS011;68326;52.124;5.424;2023-07-31T03:28:03;16.87;;;3.67;;
71975;SDS011;68326;52.124;5.424;2023-07-31T03:30:30;14.02;;;3.13;;
71975;SDS011;68326;52.124;5.424;2023-07-31T03:32:56;12.13;;;3.08;;
71975;SDS011;68326;52.124;5.424;2023-07-31T03:35:23;14.20;;;3.50;;
71975;SDS011;68326;52.124;5.424;2023-07-31T03:37:50;12.00;;;3.47;;
71975;SDS011;68326;52.124;5.424;2023-07-31T03:40:16;11.70;;;2.90;;
71975;SDS011;68326;52.124;5.424;2023-07-31T03:42:43;14.82;;;3.40;;
71975;SDS011;68326;52.124;5.424;2023-07-31T03:45:09;11.63;;;3.65;;
71975;SDS011;68326;52.124;5.424;2023-07-31T03:47:36;10.80;;;3.20;;
71975;SDS011;68326;52.124;5.424;2023-07-31T03:50:03;14.85;;;3.42;;
71975;SDS011;68326;52.124;5.424;2023-07-31T03:52:29;15.00;;;3.23;;
71975;SDS011;68326;52.124;5.424;2023-07-31T03:54:56;10.95;;;3.33;;
71975;SDS011;68326;52.124;5.424;2023-07-31T03:57:22;14.43;;;4.00;;
71975;SDS011;68326;52.124;5.424;2023-07-31T03:59:49;15.90;;;3.45;;
71975;SDS011;68326;52.124;5.424;2023-07-31T04:02:15;13.10;;;3.85;;
71975;SDS011;68326;52.124;5.424;2023-07-31T04:04:42;13.33;;;3.93;;
71975;SDS011;68326;52.124;5.424;2023-07-31T04:07:08;17.98;;;3.83;;
71975;SDS011;68326;52.124;5.424;2023-07-31T04:09:35;16.70;;;3.30;;
71975;SDS011;68326;52.124;5.424;2023-07-31T04:12:01;12.38;;;3.72;;
71975;SDS011;68326;52.124;5.424;2023-07-31T04:14:28;14.18;;;3.40;;
71975;SDS011;68326;52.124;5.424;2023-07-31T04:16:55;15.33;;;3.53;;
71975;SDS011;68326;52.124;5.424;2023-07-31T04:19:21;12.57;;;3.35;;
71975;SDS011;68326;52.124;5.424;2023-07-31T04:21:48;16.45;;;3.20;;
71975;SDS011;68326;52.124;5.424;2023-07-31T04:24:15;10.90;;;3.38;;
71975;SDS011;68326;52.124;5.424;2023-07-31T04:26:42;13.23;;;3.60;;
71975;SDS011;68326;52.124;5.424;2023-07-31T04:29:08;12.07;;;3.30;;
71975;SDS011;68326;52.124;5.424;2023-07-31T04:31:35;13.07;;;4.07;;
71975;SDS011;68326;52.124;5.424;2023-07-31T04:34:05;13.32;;;3.58;;
71975;SDS011;68326;52.124;5.424;2023-07-31T04:36:31;13.43;;;3.33;;
71975;SDS011;68326;52.124;5.424;2023-07-31T04:38:58;14.02;;;3.58;;
71975;SDS011;68326;52.124;5.424;2023-07-31T04:41:24;9.80;;;3.20;;
71975;SDS011;68326;52.124;5.424;2023-07-31T04:43:50;12.15;;;2.90;;
71975;SDS011;68326;52.124;5.424;2023-07-31T04:46:17;10.93;;;3.15;;
71975;SDS011;68326;52.124;5.424;2023-07-31T04:48:44;11.77;;;3.05;;
71975;SDS011;68326;52.124;5.424;2023-07-31T04:51:10;12.18;;;3.33;;
71975;SDS011;68326;52.124;5.424;2023-07-31T04:53:37;11.67;;;3.00;;
71975;SDS011;68326;52.124;5.424;2023-07-31T04:56:03;9.65;;;2.90;;
71975;SDS011;68326;52.124;5.424;2023-07-31T04:58:30;8.52;;;3.00;;
71975;SDS011;68326;52.124;5.424;2023-07-31T05:00:56;8.77;;;2.53;;
71975;SDS011;68326;52.124;5.424;2023-07-31T05:03:23;9.40;;;3.15;;
71975;SDS011;68326;52.124;5.424;2023-07-31T05:05:50;9.50;;;2.80;;
71975;SDS011;68326;52.124;5.424;2023-07-31T05:08:16;11.63;;;2.65;;
71975;SDS011;68326;52.124;5.424;2023-07-31T05:10:43;9.07;;;3.35;;
71975;SDS011;68326;52.124;5.424;2023-07-31T05:13:10;11.13;;;3.17;;
71975;SDS011;68326;52.124;5.424;2023-07-31T05:15:37;13.00;;;3.42;;
71975;SDS011;68326;52.124;5.424;2023-07-31T05:18:04;10.37;;;2.83;;
71975;SDS011;68326;52.124;5.424;2023-07-31T05:20:31;10.25;;;3.45;;
71975;SDS011;68326;52.124;5.424;2023-07-31T05:22:57;8.73;;;3.03;;
71975;SDS011;68326;52.124;5.424;2023-07-31T05:25:24;7.30;;;2.80;;
71975;SDS011;68326;52.124;5.424;2023-07-31T05:27:51;8.90;;;3.00;;
71975;SDS011;68326;52.124;5.424;2023-07-31T05:30:17;9.87;;;2.80;;
71975;SDS011;68326;52.124;5.424;2023-07-31T05:32:44;8.23;;;2.85;;
71975;SDS011;68326;52.124;5.424;2023-07-31T05:35:11;12.10;;;3.22;;
71975;SDS011;68326;52.124;5.424;2023-07-31T05:37:37;8.73;;;2.30;;
71975;SDS011;68326;52.124;5.424;2023-07-31T05:40:04;5.05;;;1.83;;
71975;SDS011;68326;52.124;5.424;2023-07-31T05:42:31;5.27;;;1.97;;
71975;SDS011;68326;52.124;5.424;2023-07-31T05:44:58;6.35;;;1.80;;
71975;SDS011;68326;52.124;5.424;2023-07-31T05:47:24;4.97;;;1.50;;
71975;SDS011;68326;52.124;5.424;2023-07-31T05:49:51;3.55;;;1.45;;
71975;SDS011;68326;52.124;5.424;2023-07-31T05:52:18;6.47;;;1.40;;
71975;SDS011;68326;52.124;5.424;2023-07-31T05:54:45;3.30;;;1.40;;
71975;SDS011;68326;52.124;5.424;2023-07-31T05:57:12;5.25;;;1.77;;
71975;SDS011;68326;52.124;5.424;2023-07-31T05:59:38;6.68;;;1.98;;
71975;SDS011;68326;52.124;5.424;2023-07-31T06:02:05;6.63;;;1.92;;
71975;SDS011;68326;52.124;5.424;2023-07-31T06:04:32;6.35;;;2.35;;
71975;SDS011;68326;52.124;5.424;2023-07-31T06:06:59;3.93;;;2.00;;
71975;SDS011;68326;52.124;5.424;2023-07-31T06:09:26;5.72;;;2.08;;
71975;SDS011;68326;52.124;5.424;2023-07-31T06:11:53;9.32;;;2.50;;
71975;SDS011;68326;52.124;5.424;2023-07-31T06:14:19;5.68;;;2.40;;
71975;SDS011;68326;52.124;5.424;2023-07-31T06:16:46;6.78;;;2.10;;
71975;SDS011;68326;52.124;5.424;2023-07-31T06:19:12;4.90;;;2.07;;
71975;SDS011;68326;52.124;5.424;2023-07-31T06:21:39;5.47;;;2.20;;
71975;SDS011;68326;52.124;5.424;2023-07-31T06:24:08;4.75;;;2.00;;
71975;SDS011;68326;52.124;5.424;2023-07-31T06:26:35;5.75;;;2.22;;
71975;SDS011;68326;52.124;5.424;2023-07-31T06:29:01;3.60;;;1.85;;
71975;SDS011;68326;52.124;5.424;2023-07-31T06:31:28;7.23;;;2.17;;
71975;SDS011;68326;52.124;5.424;2023-07-31T06:33:54;5.43;;;1.95;;
71975;SDS011;68326;52.124;5.424;2023-07-31T06:36:21;6.03;;;2.05;;
71975;SDS011;68326;52.124;5.424;2023-07-31T06:38:48;4.22;;;1.70;;
71975;SDS011;68326;52.124;5.424;2023-07-31T06:41:14;5.30;;;2.00;;
71975;SDS011;68326;52.124;5.424;2023-07-31T06:43:41;4.37;;;1.50;;
71975;SDS011;68326;52.124;5.424;2023-07-31T06:46:07;5.13;;;1.73;;
71975;SDS011;68326;52.124;5.424;2023-07-31T06:48:35;3.20;;;1.40;;
71975;SDS011;68326;52.124;5.424;2023-07-31T06:51:02;6.05;;;1.50;;
71975;SDS011;68326;52.124;5.424;2023-07-31T06:53:29;6.85;;;1.52;;
71975;SDS011;68326;52.124;5.424;2023-07-31T06:55:55;3.63;;;1.30;;
71975;SDS011;68326;52.124;5.424;2023-07-31T06:58:22;4.40;;;1.38;;
71975;SDS011;68326;52.124;5.424;2023-07-31T07:00:48;2.58;;;1.42;;
71975;SDS011;68326;52.124;5.424;2023-07-31T07:03:19;4.18;;;1.30;;
71975;SDS011;68326;52.124;5.424;2023-07-31T07:05:46;4.47;;;1.67;;
71975;SDS011;68326;52.124;5.424;2023-07-31T07:08:13;4.57;;;1.63;;
71975;SDS011;68326;52.124;5.424;2023-07-31T07:10:39;4.15;;;1.42;;
71975;SDS011;68326;52.124;5.424;2023-07-31T07:13:06;3.50;;;1.70;;
71975;SDS011;68326;52.124;5.424;2023-07-31T07:15:32;4.45;;;1.77;;
71975;SDS011;68326;52.124;5.424;2023-07-31T07:17:59;3.83;;;2.00;;
71975;SDS011;68326;52.124;5.424;2023-07-31T07:20:25;5.60;;;1.60;;
71975;SDS011;68326;52.124;5.424;2023-07-31T07:22:52;4.45;;;1.48;;
71975;SDS011;68326;52.124;5.424;2023-07-31T07:25:18;2.45;;;1.48;;
71975;SDS011;68326;52.124;5.424;2023-07-31T07:27:45;3.55;;;1.90;;
71975;SDS011;68326;52.124;5.424;2023-07-31T07:30:11;4.68;;;1.67;;
71975;SDS011;68326;52.124;5.424;2023-07-31T07:32:38;3.97;;;1.73;;
71975;SDS011;68326;52.124;5.424;2023-07-31T07:35:05;5.55;;;2.20;;
71975;SDS011;68326;52.124;5.424;2023-07-31T07:37:32;3.05;;;1.33;;
71975;SDS011;68326;52.124;5.424;2023-07-31T07:39:59;5.07;;;1.90;;
71975;SDS011;68326;52.124;5.424;2023-07-31T07:42:25;2.90;;;1.60;;
71975;SDS011;68326;52.124;5.424;2023-07-31T07:44:52;3.50;;;1.60;;
71975;SDS011;68326;52.124;5.424;2023-07-31T07:47:18;2.35;;;1.73;;
71975;SDS011;68326;52.124;5.424;2023-07-31T07:49:45;3.72;;;1.63;;
71975;SDS011;68326;52.124;5.424;2023-07-31T07:52:18;4.03;;;2.35;;
71975;SDS011;68326;52.124;5.424;2023-07-31T07:54:44;3.83;;;1.70;;
71975;SDS011;68326;52.124;5.424;2023-07-31T07:57:11;3.13;;;1.53;;
71975;SDS011;68326;52.124;5.424;2023-07-31T07:59:37;3.13;;;1.48;;
71975;SDS011;68326;52.124;5.424;2023-07-31T08:02:05;4.28;;;1.30;;
71975;SDS011;68326;52.124;5.424;2023-07-31T08:04:31;3.13;;;1.48;;
71975;SDS011;68326;52.124;5.424;2023-07-31T08:06:58;2.15;;;1.10;;
71975;SDS011;68326;52.124;5.424;2023-07-31T08:09:24;4.53;;;1.60;;
71975;SDS011;68326;52.124;5.424;2023-07-31T08:11:51;3.55;;;1.10;;
71975;SDS011;68326;52.124;5.424;2023-07-31T08:14:17;2.30;;;1.02;;
71975;SDS011;68326;52.124;5.424;2023-07-31T08:16:44;1.42;;;0.95;;
71975;SDS011;68326;52.124;5.424;2023-07-31T08:19:12;2.83;;;0.88;;
71975;SDS011;68326;52.124;5.424;2023-07-31T08:21:38;1.77;;;1.03;;
71975;SDS011;68326;52.124;5.424;2023-07-31T08:24:05;1.83;;;1.00;;
71975;SDS011;68326;52.124;5.424;2023-07-31T08:26:32;1.83;;;1.00;;
71975;SDS011;68326;52.124;5.424;2023-07-31T08:28:58;3.08;;;0.90;;
71975;SDS011;68326;52.124;5.424;2023-07-31T08:31:25;1.60;;;0.63;;
71975;SDS011;68326;52.124;5.424;2023-07-31T08:33:53;2.83;;;0.80;;
71975;SDS011;68326;52.124;5.424;2023-07-31T08:36:19;3.05;;;0.90;;
71975;SDS011;68326;52.124;5.424;2023-07-31T08:38:46;1.60;;;0.70;;
71975;SDS011;68326;52.124;5.424;2023-07-31T08:41:13;1.20;;;0.50;;
71975;SDS011;68326;52.124;5.424;2023-07-31T08:43:39;1.58;;;0.70;;
71975;SDS011;68326;52.124;5.424;2023-07-31T08:46:07;1.70;;;0.60;;
71975;SDS011;68326;52.124;5.424;2023-07-31T08:48:35;1.65;;;0.50;;
71975;SDS011;68326;52.124;5.424;2023-07-31T08:51:03;1.60;;;0.60;;
71975;SDS011;68326;52.124;5.424;2023-07-31T08:53:29;0.70;;;0.30;;
71975;SDS011;68326;52.124;5.424;2023-07-31T08:55:56;1.42;;;0.60;;
71975;SDS011;68326;52.124;5.424;2023-07-31T08:58:27;2.60;;;0.50;;
71975;SDS011;68326;52.124;5.424;2023-07-31T09:00:57;1.63;;;0.60;;
71975;SDS011;68326;52.124;5.424;2023-07-31T09:03:27;1.88;;;0.50;;
71975;SDS011;68326;52.124;5.424;2023-07-31T09:05:58;1.45;;;0.57;;
71975;SDS011;68326;52.124;5.424;2023-07-31T09:08:26;1.55;;;0.50;;
71975;SDS011;68326;52.124;5.424;2023-07-31T09:11:00;2.00;;;0.70;;
71975;SDS011;68326;52.124;5.424;2023-07-31T09:13:29;1.50;;;0.90;;
71975;SDS011;68326;52.124;5.424;2023-07-31T09:15:57;1.33;;;0.80;;
71975;SDS011;68326;52.124;5.424;2023-07-31T09:18:24;1.38;;;0.70;;
71975;SDS011;68326;52.124;5.424;2023-07-31T09:21:06;2.47;;;0.90;;
71975;SDS011;68326;52.124;5.424;2023-07-31T09:23:40;1.90;;;0.80;;
71975;SDS011;68326;52.124;5.424;2023-07-31T09:26:08;1.08;;;0.68;;
71975;SDS011;68326;52.124;5.424;2023-07-31T09:28:34;1.70;;;0.80;;
71975;SDS011;68326;52.124;5.424;2023-07-31T09:31:01;2.42;;;0.98;;
71975;SDS011;68326;52.124;5.424;2023-07-31T09:33:28;1.67;;;1.08;;
71975;SDS011;68326;52.124;5.424;2023-07-31T09:35:54;1.73;;;0.90;;
71975;SDS011;68326;52.124;5.424;2023-07-31T09:38:20;2.17;;;0.90;;
71975;SDS011;68326;52.124;5.424;2023-07-31T09:40:48;2.45;;;0.88;;
71975;SDS011;68326;52.124;5.424;2023-07-31T09:43:19;2.58;;;1.00;;
71975;SDS011;68326;52.124;5.424;2023-07-31T09:45:46;3.22;;;0.90;;
71975;SDS011;68326;52.124;5.424;2023-07-31T09:48:14;2.90;;;1.00;;
71975;SDS011;68326;52.124;5.424;2023-07-31T09:50:43;1.40;;;0.63;;
71975;SDS011;68326;52.124;5.424;2023-07-31T09:53:15;1.30;;;0.98;;
71975;SDS011;68326;52.124;5.424;2023-07-31T09:55:43;2.80;;;1.02;;
71975;SDS011;68326;52.124;5.424;2023-07-31T09:58:10;2.80;;;1.00;;
71975;SDS011;68326;52.124;5.424;2023-07-31T10:00:38;1.77;;;0.80;;
71975;SDS011;68326;52.124;5.424;2023-07-31T10:03:06;2.00;;;0.93;;
71975;SDS011;68326;52.124;5.424;2023-07-31T10:05:38;2.80;;;0.90;;
71975;SDS011;68326;52.124;5.424;2023-07-31T10:08:09;1.50;;;0.70;;
71975;SDS011;68326;52.124;5.424;2023-07-31T10:10:37;1.88;;;0.88;;
71975;SDS011;68326;52.124;5.424;2023-07-31T10:13:07;1.87;;;0.83;;
71975;SDS011;68326;52.124;5.424;2023-07-31T10:15:34;2.65;;;1.02;;
71975;SDS011;68326;52.124;5.424;2023-07-31T10:18:02;2.90;;;1.35;;
71975;SDS011;68326;52.124;5.424;2023-07-31T10:20:31;3.47;;;1.33;;
71975;SDS011;68326;52.124;5.424;2023-07-31T10:22:58;2.25;;;1.50;;
71975;SDS011;68326;52.124;5.424;2023-07-31T10:25:28;3.27;;;1.60;;
71975;SDS011;68326;52.124;5.424;2023-07-31T10:27:56;4.43;;;2.15;;
71975;SDS011;68326;52.124;5.424;2023-07-31T10:30:27;4.07;;;2.17;;
71975;SDS011;68326;52.124;5.424;2023-07-31T10:32:56;5.13;;;2.05;;
71975;SDS011;68326;52.124;5.424;2023-07-31T10:35:24;4.65;;;2.20;;
71975;SDS011;68326;52.124;5.424;2023-07-31T10:37:51;4.97;;;2.03;;
71975;SDS011;68326;52.124;5.424;2023-07-31T10:40:19;3.45;;;2.20;;
71975;SDS011;68326;52.124;5.424;2023-07-31T10:42:56;5.18;;;2.90;;
71975;SDS011;68326;52.124;5.424;2023-07-31T10:45:26;4.22;;;2.50;;
71975;SDS011;68326;52.124;5.424;2023-07-31T10:48:03;3.33;;;2.22;;
71975;SDS011;68326;52.124;5.424;2023-07-31T10:50:32;4.40;;;1.93;;
71975;SDS011;68326;52.124;5.424;2023-07-31T10:53:03;3.85;;;2.20;;
71975;SDS011;68326;52.124;5.424;2023-07-31T10:55:36;3.63;;;2.03;;
71975;SDS011;68326;52.124;5.424;2023-07-31T10:58:11;5.50;;;2.28;;
71975;SDS011;68326;52.124;5.424;2023-07-31T11:00:42;2.65;;;1.85;;
71975;SDS011;68326;52.124;5.424;2023-07-31T11:03:10;2.73;;;1.47;;
71975;SDS011;68326;52.124;5.424;2023-07-31T11:05:43;3.17;;;1.52;;
71975;SDS011;68326;52.124;5.424;2023-07-31T11:08:32;2.42;;;1.60;;
71975;SDS011;68326;52.124;5.424;2023-07-31T11:16:09;2.30;;;1.17;;
71975;SDS011;68326;52.124;5.424;2023-07-31T11:18:38;3.75;;;1.27;;
71975;SDS011;68326;52.124;5.424;2023-07-31T11:21:05;1.90;;;1.20;;
71975;SDS011;68326;52.124;5.424;2023-07-31T11:23:32;3.20;;;0.85;;
71975;SDS011;68326;52.124;5.424;2023-07-31T11:25:59;2.10;;;1.23;;
71975;SDS011;68326;52.124;5.424;2023-07-31T11:28:30;1.63;;;1.07;;
71975;SDS011;68326;52.124;5.424;2023-07-31T11:30:59;2.72;;;0.70;;
71975;SDS011;68326;52.124;5.424;2023-07-31T11:33:26;1.42;;;0.70;;
71975;SDS011;68326;52.124;5.424;2023-07-31T11:35:53;1.75;;;0.82;;
71975;SDS011;68326;52.124;5.424;2023-07-31T11:38:26;1.60;;;0.80;;
71975;SDS011;68326;52.124;5.424;2023-07-31T11:40:56;2.60;;;0.60;;
71975;SDS011;68326;52.124;5.424;2023-07-31T11:43:25;2.38;;;1.00;;
71975;SDS011;68326;52.124;5.424;2023-07-31T11:45:54;1.38;;;0.65;;
71975;SDS011;68326;52.124;5.424;2023-07-31T11:48:23;2.75;;;1.27;;
71975;SDS011;68326;52.124;5.424;2023-07-31T11:50:54;2.80;;;1.17;;
71975;SDS011;68326;52.124;5.424;2023-07-31T11:53:34;2.20;;;1.40;;
71975;SDS011;68326;52.124;5.424;2023-07-31T11:56:04;3.25;;;1.38;;
71975;SDS011;68326;52.124;5.424;2023-07-31T11:58:33;2.75;;;1.33;;
71975;SDS011;68326;52.124;5.424;2023-07-31T12:01:01;2.90;;;1.30;;
71975;SDS011;68326;52.124;5.424;2023-07-31T12:03:29;2.95;;;1.27;;
71975;SDS011;68326;52.124;5.424;2023-07-31T12:05:57;4.47;;;2.00;;
71975;SDS011;68326;52.124;5.424;2023-07-31T12:08:25;3.67;;;1.60;;
71975;SDS011;68326;52.124;5.424;2023-07-31T12:10:52;2.30;;;1.63;;
71975;SDS011;68326;52.124;5.424;2023-07-31T12:13:20;6.35;;;1.80;;
71975;SDS011;68326;52.124;5.424;2023-07-31T12:15:49;3.75;;;1.55;;
71975;SDS011;68326;52.124;5.424;2023-07-31T12:18:21;3.60;;;1.50;;
71975;SDS011;68326;52.124;5.424;2023-07-31T12:20:49;2.80;;;1.75;;
71975;SDS011;68326;52.124;5.424;2023-07-31T12:23:21;2.45;;;1.50;;
71975;SDS011;68326;52.124;5.424;2023-07-31T12:28:32;1.90;;;1.13;;
71975;SDS011;68326;52.124;5.424;2023-07-31T12:31:03;2.23;;;1.40;;
71975;SDS011;68326;52.124;5.424;2023-07-31T12:33:31;2.30;;;0.95;;
71975;SDS011;68326;52.124;5.424;2023-07-31T12:36:00;2.03;;;1.45;;
71975;SDS011;68326;52.124;5.424;2023-07-31T12:38:29;2.05;;;1.10;;
71975;SDS011;68326;52.124;5.424;2023-07-31T12:40:56;1.70;;;0.90;;
71975;SDS011;68326;52.124;5.424;2023-07-31T12:43:23;3.33;;;1.33;;
71975;SDS011;68326;52.124;5.424;2023-07-31T12:45:49;1.88;;;1.27;;
71975;SDS011;68326;52.124;5.424;2023-07-31T12:48:16;2.10;;;1.33;;
71975;SDS011;68326;52.124;5.424;2023-07-31T12:50:42;2.67;;;1.58;;
71975;SDS011;68326;52.124;5.424;2023-07-31T12:53:09;2.33;;;1.42;;
71975;SDS011;68326;52.124;5.424;2023-07-31T12:55:35;2.47;;;1.40;;
71975;SDS011;68326;52.124;5.424;2023-07-31T12:58:03;3.28;;;1.98;;
71975;SDS011;68326;52.124;5.424;2023-07-31T13:00:29;4.28;;;2.03;;
71975;SDS011;68326;52.124;5.424;2023-07-31T13:02:56;2.60;;;1.88;;
71975;SDS011;68326;52.124;5.424;2023-07-31T13:05:23;3.45;;;2.00;;
71975;SDS011;68326;52.124;5.424;2023-07-31T13:07:49;4.07;;;2.40;;
71975;SDS011;68326;52.124;5.424;2023-07-31T13:10:18;5.00;;;2.22;;
71975;SDS011;68326;52.124;5.424;2023-07-31T13:12:45;2.30;;;1.88;;
71975;SDS011;68326;52.124;5.424;2023-07-31T13:15:12;2.60;;;1.80;;
71975;SDS011;68326;52.124;5.424;2023-07-31T13:17:38;3.78;;;2.08;;
71975;SDS011;68326;52.124;5.424;2023-07-31T13:20:05;3.57;;;2.20;;
71975;SDS011;68326;52.124;5.424;2023-07-31T13:22:32;4.00;;;2.05;;
71975;SDS011;68326;52.124;5.424;2023-07-31T13:24:59;4.03;;;2.10;;
71975;SDS011;68326;52.124;5.424;2023-07-31T13:27:26;3.97;;;1.90;;
71975;SDS011;68326;52.124;5.424;2023-07-31T13:29:52;3.72;;;2.13;;
71975;SDS011;68326;52.124;5.424;2023-07-31T13:32:19;3.23;;;1.80;;
71975;SDS011;68326;52.124;5.424;2023-07-31T13:34:47;3.67;;;2.08;;
71975;SDS011;68326;52.124;5.424;2023-07-31T13:37:14;3.55;;;1.83;;
71975;SDS011;68326;52.124;5.424;2023-07-31T13:39:41;3.05;;;1.52;;
71975;SDS011;68326;52.124;5.424;2023-07-31T13:42:08;2.22;;;1.15;;
71975;SDS011;68326;52.124;5.424;2023-07-31T13:44:38;1.60;;;0.77;;
71975;SDS011;68326;52.124;5.424;2023-07-31T13:47:05;1.45;;;0.57;;
71975;SDS011;68326;52.124;5.424;2023-07-31T13:49:33;2.00;;;1.00;;
71975;SDS011;68326;52.124;5.424;2023-07-31T13:52:00;1.40;;;0.85;;
71975;SDS011;68326;52.124;5.424;2023-07-31T13:54:26;1.45;;;0.85;;
71975;SDS011;68326;52.124;5.424;2023-07-31T13:56:56;2.10;;;0.90;;
71975;SDS011;68326;52.124;5.424;2023-07-31T13:59:23;1.98;;;1.00;;
71975;SDS011;68326;52.124;5.424;2023-07-31T14:01:49;2.20;;;1.10;;
71975;SDS011;68326;52.124;5.424;2023-07-31T14:04:16;1.60;;;0.90;;
71975;SDS011;68326;52.124;5.424;2023-07-31T14:06:44;1.50;;;0.90;;
71975;SDS011;68326;52.124;5.424;2023-07-31T14:09:10;1.73;;;0.77;;
71975;SDS011;68326;52.124;5.424;2023-07-31T14:11:37;1.23;;;0.65;;
71975;SDS011;68326;52.124;5.424;2023-07-31T14:14:08;2.38;;;1.10;;
71975;SDS011;68326;52.124;5.424;2023-07-31T14:16:35;1.50;;;0.90;;
71975;SDS011;68326;52.124;5.424;2023-07-31T14:19:02;1.70;;;1.00;;
71975;SDS011;68326;52.124;5.424;2023-07-31T14:21:29;2.57;;;1.97;;
71975;SDS011;68326;52.124;5.424;2023-07-31T14:23:55;4.68;;;2.80;;
71975;SDS011;68326;52.124;5.424;2023-07-31T14:26:22;4.05;;;3.38;;
71975;SDS011;68326;52.124;5.424;2023-07-31T14:28:48;5.50;;;3.60;;
71975;SDS011;68326;52.124;5.424;2023-07-31T14:31:15;5.45;;;3.85;;
71975;SDS011;68326;52.124;5.424;2023-07-31T14:33:42;5.03;;;3.77;;
71975;SDS011;68326;52.124;5.424;2023-07-31T14:36:08;4.95;;;3.67;;
71975;SDS011;68326;52.124;5.424;2023-07-31T14:38:35;4.57;;;3.25;;
71975;SDS011;68326;52.124;5.424;2023-07-31T14:41:01;3.33;;;2.15;;
71975;SDS011;68326;52.124;5.424;2023-07-31T14:43:28;4.57;;;3.40;;
71975;SDS011;68326;52.124;5.424;2023-07-31T14:45:54;4.20;;;3.67;;
71975;SDS011;68326;52.124;5.424;2023-07-31T14:48:25;4.88;;;3.60;;
71975;SDS011;68326;52.124;5.424;2023-07-31T14:50:53;4.35;;;2.85;;
71975;SDS011;68326;52.124;5.424;2023-07-31T14:53:20;4.38;;;2.75;;
71975;SDS011;68326;52.124;5.424;2023-07-31T14:55:47;3.65;;;2.60;;
71975;SDS011;68326;52.124;5.424;2023-07-31T14:58:13;4.53;;;3.10;;
71975;SDS011;68326;52.124;5.424;2023-07-31T15:00:40;5.40;;;3.25;;
71975;SDS011;68326;52.124;5.424;2023-07-31T15:03:07;4.72;;;2.83;;
71975;SDS011;68326;52.124;5.424;2023-07-31T15:05:34;3.58;;;2.10;;